PWSweather.com
Personal Weather Stations
Station Observations
KTXPLANO60
Highlands Of Russell Park, Plano, TX 75025

Highlands Of Russell ParkPlano, TX 75025

Lat: 33.10431671, Lon: -96.75176239

Elevation: 761

Station Type: Davis Wireless VP2 Plus

http://www.planoweather.com

Latest ConditionsUpdated 11:10:01 AM CDT Monday, Oct 15, 2018
Currently Today's Max Today's Min Today's Average
Temperature 39.8°F4.3°C 50.8°F10.4°C 39.7°F4.3°C 43.0°F6.1°C
Dew Point 38.0°F3.3°C 48.6°F9.2°C 37.9°F3.3°C 40.9°F4.9°C
Winds 6.9 mph NNW11.1 kmh NNW 17.3 mph -27.8 kmh - - 10.7 mph 17.2 kmh
Wind Gusts 13.8 mph22.2 kmh 26.5 mph42.6 kmh - -
Humidity 93% 96% 92% 93%
Pressure 30.25 in1024.4 mb 30.25 in1024.4 mb 30.02 in1016.6 mb -
Precipitation - 1.97 in50.0 mm - -
Hour Temp Dew Point Humidity Winds Wind Gusts Pressure Precip Precip Rate Daily Precip Total
11:10 AM 39.8°F4.3°C 38.0°F3.3°C 93% 6.9 mph NNW11.1 kmh NNW 13.8 mph22.2 kmh 30.25 in1024.4 mb - 0.03 in0.8 mm 1.97 in50.0 mm
11:00 AM 39.7°F4.3°C 37.9°F3.3°C 93% 9.2 mph 14.8 kmh 19.6 mph31.5 kmh 30.23 in1023.7 mb - 0.03 in0.8 mm 1.94 in49.3 mm
10:50 AM 39.8°F4.3°C 37.9°F3.3°C 93% 10.4 mph N16.7 kmh N 11.5 mph18.5 kmh 30.24 in1024.0 mb - 0.01 in0.3 mm 1.91 in48.5 mm
10:40 AM 39.9°F4.4°C 38.0°F3.3°C 93% 10.4 mph N16.7 kmh N 16.1 mph25.9 kmh 30.23 in1023.7 mb - 0.01 in0.3 mm 1.90 in48.3 mm
10:30 AM 40.0°F4.4°C 37.9°F3.3°C 92% 11.5 mph N18.5 kmh N 18.4 mph29.6 kmh 30.23 in1023.7 mb - 0.01 in0.3 mm 1.89 in48.0 mm
10:20 AM 40.2°F4.6°C 38.1°F3.4°C 92% 10.4 mph NNW16.7 kmh NNW 18.4 mph29.6 kmh 30.22 in1023.4 mb - 0.02 in0.5 mm 1.88 in47.8 mm
10:10 AM 40.2°F4.6°C 38.1°F3.4°C 92% 9.2 mph N14.8 kmh N 18.4 mph29.6 kmh 30.22 in1023.4 mb - 0.02 in0.5 mm 1.86 in47.2 mm
10:00 AM 40.2°F4.6°C 38.1°F3.4°C 92% 9.2 mph NNW14.8 kmh NNW 11.5 mph18.5 kmh 30.21 in1023.0 mb - 0.03 in0.8 mm 1.84 in46.7 mm
09:50 AM 40.4°F4.7°C 38.5°F3.6°C 93% 9.2 mph N14.8 kmh N 16.1 mph25.9 kmh 30.22 in1023.4 mb - 0.01 in0.3 mm 1.81 in46.0 mm
09:40 AM 40.5°F4.7°C 38.6°F3.7°C 93% 10.4 mph N16.7 kmh N 12.7 mph20.4 kmh 30.23 in1023.7 mb - 0.01 in0.3 mm 1.80 in45.7 mm
09:30 AM 40.4°F4.7°C 38.5°F3.6°C 93% 8.1 mph NW13.0 kmh NW 11.5 mph18.5 kmh 30.24 in1024.0 mb - 0.02 in0.5 mm 1.79 in45.5 mm
09:20 AM 40.4°F4.7°C 38.5°F3.6°C 93% 9.2 mph NNW14.8 kmh NNW 12.7 mph20.4 kmh 30.23 in1023.7 mb - 0.06 in1.5 mm 1.78 in45.2 mm
09:10 AM 40.4°F4.7°C 38.6°F3.7°C 93% 10.4 mph N16.7 kmh N 11.5 mph18.5 kmh 30.22 in1023.4 mb - 0.08 in2.0 mm 1.73 in43.9 mm
09:00 AM 40.6°F4.8°C 38.7°F3.7°C 93% 10.4 mph NNW16.7 kmh NNW 12.7 mph20.4 kmh 30.21 in1023.0 mb - 0.06 in1.5 mm 1.66 in42.2 mm
08:50 AM 40.5°F4.7°C 38.6°F3.7°C 93% 9.2 mph NNW14.8 kmh NNW 17.3 mph27.8 kmh 30.20 in1022.7 mb - 0.07 in1.8 mm 1.60 in40.6 mm
08:40 AM 40.7°F4.8°C 38.5°F3.6°C 92% 9.2 mph NNW14.8 kmh NNW 19.6 mph31.5 kmh 30.19 in1022.4 mb - 0.05 in1.3 mm 1.54 in39.1 mm
08:30 AM 40.7°F4.8°C 38.5°F3.6°C 92% 9.2 mph NNW14.8 kmh NNW 13.8 mph22.2 kmh 30.18 in1022.0 mb - 0.02 in0.5 mm 1.50 in38.1 mm
08:20 AM 40.6°F4.8°C 38.7°F3.7°C 93% 11.5 mph NNW18.5 kmh NNW 16.1 mph25.9 kmh 30.18 in1022.0 mb - 0.02 in0.5 mm 1.48 in37.6 mm
08:10 AM 40.7°F4.8°C 38.6°F3.7°C 92% 10.4 mph NNW16.7 kmh NNW 13.8 mph22.2 kmh 30.17 in1021.7 mb - 0.02 in0.5 mm 1.46 in37.1 mm
08:00 AM 40.8°F4.9°C 38.7°F3.7°C 92% 9.2 mph NNW14.8 kmh NNW 12.7 mph20.4 kmh 30.17 in1021.7 mb - 0.03 in0.8 mm 1.45 in36.8 mm
07:50 AM 40.8°F4.9°C 38.7°F3.7°C 92% 12.7 mph N20.4 kmh N 12.7 mph20.4 kmh 30.16 in1021.3 mb - 0.02 in0.5 mm 1.42 in36.1 mm
07:40 AM 40.9°F4.9°C 38.8°F3.8°C 92% 12.7 mph NW20.4 kmh NW 21.9 mph35.2 kmh 30.17 in1021.7 mb - 0.02 in0.5 mm 1.40 in35.6 mm
07:30 AM 41.0°F5.0°C 38.9°F3.8°C 92% 6.9 mph NNW11.1 kmh NNW 19.6 mph31.5 kmh 30.16 in1021.3 mb - 0.02 in0.5 mm 1.38 in35.1 mm
07:20 AM 41.0°F5.0°C 39.9°F4.4°C 96% 10.4 mph NNW16.7 kmh NNW 12.7 mph20.4 kmh 30.16 in1021.3 mb - 0.03 in0.8 mm 1.36 in34.5 mm
07:10 AM 41.1°F5.1°C 39.2°F4.0°C 93% 10.4 mph NW16.7 kmh NW 13.8 mph22.2 kmh 30.16 in1021.3 mb - 0.03 in0.8 mm 1.33 in33.8 mm
07:00 AM 41.0°F5.0°C 39.1°F3.9°C 93% 10.4 mph NNW16.7 kmh NNW 12.7 mph20.4 kmh 30.16 in1021.3 mb - 0.01 in0.3 mm 1.30 in33.0 mm
06:50 AM 41.0°F5.0°C 39.1°F3.9°C 93% 9.2 mph NNW14.8 kmh NNW 19.6 mph31.5 kmh 30.16 in1021.3 mb - 0.00 in0.0 mm 1.29 in32.8 mm
06:40 AM 41.2°F5.1°C 39.3°F4.1°C 93% 11.5 mph NNW18.5 kmh NNW 19.6 mph31.5 kmh 30.16 in1021.3 mb - 0.01 in0.3 mm 1.29 in32.8 mm
06:30 AM 41.0°F5.0°C 39.1°F3.9°C 93% 8.1 mph NW13.0 kmh NW 12.7 mph20.4 kmh 30.16 in1021.3 mb - 0.00 in0.0 mm 1.28 in32.5 mm
06:20 AM 41.0°F5.0°C 39.9°F4.4°C 96% 11.5 mph NW18.5 kmh NW 21.9 mph35.2 kmh 30.14 in1020.7 mb - 0.01 in0.3 mm 1.28 in32.5 mm
06:10 AM 41.1°F5.1°C 39.2°F4.0°C 93% 10.4 mph NNW16.7 kmh NNW 12.7 mph20.4 kmh 30.13 in1020.3 mb - 0.01 in0.3 mm 1.27 in32.3 mm
06:00 AM 41.2°F5.1°C 39.3°F4.1°C 93% 9.2 mph NNW14.8 kmh NNW 11.5 mph18.5 kmh 30.14 in1020.7 mb - 0.00 in0.0 mm 1.26 in32.0 mm
05:50 AM 41.4°F5.2°C 39.5°F4.2°C 93% 6.9 mph NNW11.1 kmh NNW 9.2 mph14.8 kmh 30.14 in1020.7 mb - 0.01 in0.3 mm 1.26 in32.0 mm
05:40 AM 41.3°F5.2°C 39.4°F4.1°C 93% 10.4 mph N16.7 kmh N 11.5 mph18.5 kmh 30.13 in1020.3 mb - 0.00 in0.0 mm 1.25 in31.8 mm
05:30 AM 41.3°F5.2°C 39.4°F4.1°C 93% 11.5 mph NNW18.5 kmh NNW 18.4 mph29.6 kmh 30.11 in1019.6 mb - 0.01 in0.3 mm 1.25 in31.8 mm
05:20 AM 41.3°F5.2°C 39.4°F4.1°C 93% 12.7 mph NNW20.4 kmh NNW 18.4 mph29.6 kmh 30.12 in1020.0 mb - 0.01 in0.3 mm 1.25 in31.8 mm
05:10 AM 41.4°F5.2°C 39.3°F4.1°C 92% 11.5 mph N18.5 kmh N 17.3 mph27.8 kmh 30.11 in1019.6 mb - 0.05 in1.3 mm 1.24 in31.5 mm
05:00 AM 41.6°F5.3°C 39.7°F4.3°C 93% 11.5 mph NNW18.5 kmh NNW 19.6 mph31.5 kmh 30.12 in1020.0 mb - 0.15 in3.8 mm 1.21 in30.7 mm
04:50 AM 41.7°F5.4°C 39.8°F4.3°C 93% 5.8 mph NW9.3 kmh NW 13.8 mph22.2 kmh 30.13 in1020.3 mb - 0.09 in2.3 mm 1.07 in27.2 mm
04:40 AM 41.9°F5.5°C 39.7°F4.3°C 92% 11.5 mph NW18.5 kmh NW 19.6 mph31.5 kmh 30.10 in1019.3 mb - 0.08 in2.0 mm 1.00 in25.4 mm
04:30 AM 42.3°F5.7°C 40.4°F4.7°C 93% 13.8 mph NNW22.2 kmh NNW 19.6 mph31.5 kmh 30.09 in1019.0 mb - 0.02 in0.5 mm 0.92 in23.4 mm
04:20 AM 42.8°F6.0°C 40.6°F4.8°C 92% 9.2 mph NNW14.8 kmh NNW 17.3 mph27.8 kmh 30.09 in1019.0 mb - 0.06 in1.5 mm 0.91 in23.1 mm
04:10 AM 42.7°F5.9°C 40.5°F4.7°C 92% 10.4 mph N16.7 kmh N 13.8 mph22.2 kmh 30.09 in1019.0 mb - 0.01 in0.3 mm 0.85 in21.6 mm
04:00 AM 43.1°F6.2°C 41.2°F5.1°C 93% 10.4 mph NNW16.7 kmh NNW 19.6 mph31.5 kmh 30.09 in1019.0 mb - 0.00 in0.0 mm 0.84 in21.3 mm
03:50 AM 43.3°F6.3°C 41.1°F5.1°C 92% 12.7 mph N20.4 kmh N 19.6 mph31.5 kmh 30.06 in1017.9 mb - 0.02 in0.5 mm 0.84 in21.3 mm
03:40 AM 43.3°F6.3°C 41.1°F5.1°C 92% 10.4 mph NNW16.7 kmh NNW 15.0 mph24.1 kmh 30.06 in1017.9 mb - 0.04 in1.0 mm 0.82 in20.8 mm
03:30 AM 43.4°F6.3°C 41.5°F5.3°C 93% 10.4 mph N16.7 kmh N 18.4 mph29.6 kmh 30.09 in1019.0 mb - 0.09 in2.3 mm 0.78 in19.8 mm
03:20 AM 43.9°F6.6°C 41.7°F5.4°C 92% 11.5 mph NNW18.5 kmh NNW 17.3 mph27.8 kmh 30.08 in1018.6 mb - 0.02 in0.5 mm 0.69 in17.5 mm
03:10 AM 44.2°F6.8°C 42.0°F5.6°C 92% 9.2 mph N14.8 kmh N 11.5 mph18.5 kmh 30.07 in1018.3 mb - 0.04 in1.0 mm 0.67 in17.0 mm
03:00 AM 44.4°F6.9°C 42.2°F5.7°C 92% 9.2 mph NNW14.8 kmh NNW 12.7 mph20.4 kmh 30.07 in1018.3 mb - 0.06 in1.5 mm 0.64 in16.3 mm
02:50 AM 44.5°F6.9°C 42.3°F5.7°C 92% 13.8 mph NW22.2 kmh NW 17.3 mph27.8 kmh 30.07 in1018.3 mb - 0.05 in1.3 mm 0.58 in14.7 mm
02:40 AM 45.1°F7.3°C 42.9°F6.1°C 92% 15.0 mph NNW24.1 kmh NNW 21.9 mph35.2 kmh 30.08 in1018.6 mb - 0.08 in2.0 mm 0.54 in13.7 mm
02:30 AM 45.5°F7.5°C 43.3°F6.3°C 92% 13.8 mph N22.2 kmh N 19.6 mph31.5 kmh 30.07 in1018.3 mb - 0.17 in4.3 mm 0.47 in11.9 mm
02:20 AM 46.1°F7.8°C 43.9°F6.6°C 92% 9.2 mph NNW14.8 kmh NNW 12.7 mph20.4 kmh 30.09 in1019.0 mb - 0.24 in6.1 mm 0.31 in7.9 mm
02:10 AM 46.4°F8.0°C 44.2°F6.8°C 92% 12.7 mph N20.4 kmh N 19.6 mph31.5 kmh 30.07 in1018.3 mb - 0.08 in2.0 mm 0.09 in2.3 mm
02:00 AM 46.5°F8.1°C 44.3°F6.8°C 92% 10.4 mph NW16.7 kmh NW 13.8 mph22.2 kmh 30.06 in1017.9 mb - 0.00 in0.0 mm 0.01 in0.3 mm
01:50 AM 46.7°F8.2°C 44.5°F6.9°C 92% 11.5 mph NW18.5 kmh NW 16.1 mph25.9 kmh 30.05 in1017.6 mb - 0.00 in0.0 mm 0.01 in0.3 mm
01:40 AM 47.1°F8.4°C 44.9°F7.2°C 92% 12.7 mph NW20.4 kmh NW 19.6 mph31.5 kmh 30.04 in1017.3 mb - 0.00 in0.0 mm 0.01 in0.3 mm
01:30 AM 47.4°F8.6°C 45.2°F7.3°C 92% 10.4 mph NNW16.7 kmh NNW 18.4 mph29.6 kmh 30.04 in1017.3 mb - 0.01 in0.3 mm 0.01 in0.3 mm
01:20 AM 47.5°F8.6°C 45.2°F7.3°C 92% 12.7 mph NNW20.4 kmh NNW 16.1 mph25.9 kmh 30.04 in1017.3 mb - 0.00 in0.0 mm 0.00 in0.0 mm
01:10 AM 47.7°F8.7°C 45.5°F7.5°C 92% 13.8 mph NNW22.2 kmh NNW 15.0 mph24.1 kmh 30.03 in1016.9 mb - 0.00 in0.0 mm 0.00 in0.0 mm
01:00 AM 48.3°F9.1°C 46.1°F7.8°C 92% 17.3 mph NNW27.8 kmh NNW 26.5 mph42.6 kmh 30.04 in1017.3 mb - 0.00 in0.0 mm 0.00 in0.0 mm
12:50 AM 48.7°F9.3°C 46.5°F8.1°C 92% 9.2 mph NNW14.8 kmh NNW 11.5 mph18.5 kmh 30.04 in1017.3 mb - 0.00 in0.0 mm 0.00 in0.0 mm
12:40 AM 49.3°F9.6°C 47.1°F8.4°C 92% 8.1 mph NNW13.0 kmh NNW 10.4 mph16.7 kmh 30.04 in1017.3 mb - 0.00 in0.0 mm 0.00 in0.0 mm
12:30 AM 49.5°F9.7°C 47.3°F8.5°C 92% 10.4 mph NNW16.7 kmh NNW 16.1 mph25.9 kmh 30.03 in1016.9 mb - 0.00 in0.0 mm 0.00 in0.0 mm
12:20 AM 49.7°F9.8°C 47.5°F8.6°C 92% 13.8 mph NNW22.2 kmh NNW 21.9 mph35.2 kmh 30.03 in1016.9 mb - 0.00 in0.0 mm 0.00 in0.0 mm
12:10 AM 50.2°F10.1°C 47.9°F8.8°C 92% 13.8 mph NW22.2 kmh NW 25.3 mph40.7 kmh 30.03 in1016.9 mb - 0.00 in0.0 mm 0.00 in0.0 mm
12:00 AM 50.8°F10.4°C 48.6°F9.2°C 92% 12.7 mph NNW20.4 kmh NNW 20.7 mph33.3 kmh 30.02 in1016.6 mb - 0.00 in0.0 mm 0.00 in0.0 mm